createdAt,value
2018-08-10T00:01:01.066Z,2.27
2018-08-10T00:03:29.582Z,2.50
2018-08-10T00:05:59.881Z,2.40
2018-08-10T00:08:28.416Z,2.73
2018-08-10T00:10:57.533Z,2.50
2018-08-10T00:13:25.982Z,3.00
2018-08-10T00:15:55.284Z,2.97
2018-08-10T00:18:23.800Z,2.87
2018-08-10T00:20:54.184Z,2.70
2018-08-10T00:23:22.708Z,2.50
2018-08-10T00:25:51.216Z,2.80
2018-08-10T00:28:19.816Z,2.60
2018-08-10T00:30:48.941Z,2.17
2018-08-10T00:33:18.368Z,2.57
2018-08-10T00:35:46.881Z,2.60
2018-08-10T00:38:15.612Z,2.50
2018-08-10T00:40:44.295Z,2.17
2018-08-10T00:43:12.801Z,2.03
2018-08-10T00:45:41.616Z,1.60
2018-08-10T00:48:10.165Z,1.70
2018-08-10T00:50:38.616Z,1.87
2018-08-10T00:53:07.187Z,1.50
2018-08-10T00:55:36.097Z,1.60
2018-08-10T00:58:05.462Z,1.70
2018-08-10T01:00:34.005Z,1.67
2018-08-10T01:20:24.681Z,1.30
2018-08-10T01:22:58.555Z,1.10
2018-08-10T01:25:28.089Z,1.30
2018-08-10T01:28:01.514Z,1.30
2018-08-10T01:30:31.886Z,1.30
2018-08-10T01:33:01.447Z,1.27
2018-08-10T01:35:30.557Z,1.20
2018-08-10T01:38:00.272Z,1.20
2018-08-10T01:40:29.310Z,1.20
2018-08-10T01:42:57.925Z,1.10
2018-08-10T01:45:26.413Z,1.30
2018-08-10T01:47:54.966Z,1.10
2018-08-10T02:07:44.598Z,1.10
2018-08-10T02:10:17.665Z,1.00
2018-08-10T02:12:52.101Z,1.00
2018-08-10T02:15:20.726Z,1.00
2018-08-10T02:17:50.174Z,0.97
2018-08-10T02:20:20.129Z,1.07
2018-08-10T02:22:48.893Z,0.80
2018-08-10T02:25:18.653Z,0.90
2018-08-10T02:27:48.386Z,0.97
2018-08-10T02:30:18.248Z,0.90
2018-08-10T02:32:47.886Z,0.90
2018-08-10T02:35:16.453Z,0.90
2018-08-10T02:55:07.497Z,0.80
2018-08-10T02:57:36.376Z,1.00
2018-08-10T03:00:06.734Z,0.90
2018-08-10T03:02:35.220Z,0.90
2018-08-10T03:05:03.791Z,0.90
2018-08-10T03:07:32.422Z,0.80
2018-08-10T03:10:03.452Z,1.10
2018-08-10T03:12:32.142Z,1.00
2018-08-10T03:15:01.124Z,1.20
2018-08-10T03:17:29.646Z,0.97
2018-08-10T03:19:58.121Z,1.10
2018-08-10T03:22:26.519Z,1.20
2018-08-10T03:24:55.317Z,1.10
2018-08-10T03:27:23.865Z,1.30
2018-08-10T03:29:52.336Z,1.30
2018-08-10T03:32:20.813Z,1.20
2018-08-10T03:34:49.347Z,1.53
2018-08-10T03:37:17.814Z,1.20
2018-08-10T03:39:46.359Z,1.20
2018-08-10T03:42:14.865Z,1.20
2018-08-10T03:44:43.386Z,1.10
2018-08-10T03:47:12.010Z,1.30
2018-08-10T03:49:40.764Z,1.70
2018-08-10T03:52:09.225Z,1.43
2018-08-10T03:54:37.798Z,1.20
2018-08-10T04:14:26.286Z,1.40
2018-08-10T04:16:54.790Z,1.37
2018-08-10T04:19:23.452Z,1.30
2018-08-10T04:21:52.019Z,1.37
2018-08-10T04:24:20.638Z,1.50
2018-08-10T04:26:49.177Z,1.30
2018-08-10T04:29:17.699Z,1.40
2018-08-10T04:31:47.073Z,1.37
2018-08-10T04:34:15.538Z,1.20
2018-08-10T04:36:45.352Z,1.43
2018-08-10T04:39:16.379Z,1.50
2018-08-10T04:41:45.814Z,1.43
2018-08-10T04:44:14.425Z,1.07
2018-08-10T04:46:42.897Z,1.00
2018-08-10T04:49:12.119Z,1.40
2018-08-10T04:51:40.895Z,1.20
2018-08-10T04:54:09.555Z,1.73
2018-08-10T04:56:38.193Z,1.20
2018-08-10T04:59:07.315Z,1.20
2018-08-10T05:01:35.813Z,1.30
2018-08-10T05:04:04.396Z,1.30
2018-08-10T05:06:34.151Z,1.20
2018-08-10T05:09:03.518Z,1.30
2018-08-10T05:11:32.031Z,1.27
2018-08-10T05:14:01.075Z,1.30
2018-08-10T05:16:30.198Z,1.33
2018-08-10T05:18:59.437Z,1.40
2018-08-10T05:21:28.094Z,1.20
2018-08-10T05:23:57.456Z,1.20
2018-08-10T05:26:25.920Z,1.30
2018-08-10T05:28:54.506Z,1.30
2018-08-10T05:31:23.066Z,1.60
2018-08-10T05:33:51.672Z,1.40
2018-08-10T05:36:20.234Z,1.27
2018-08-10T05:38:49.502Z,1.20
2018-08-10T05:41:18.802Z,1.30
2018-08-10T05:43:47.435Z,1.40
2018-08-10T05:46:15.911Z,1.50
2018-08-10T05:48:44.381Z,1.20
2018-08-10T05:51:14.322Z,1.90
2018-08-10T06:11:02.485Z,1.30
2018-08-10T06:13:30.996Z,1.63
2018-08-10T06:33:20.451Z,1.30
2018-08-10T06:35:49.001Z,1.30
2018-08-10T06:38:17.505Z,1.30
2018-08-10T06:40:47.389Z,1.30
2018-08-10T06:43:15.913Z,1.53
2018-08-10T06:45:44.514Z,1.10
2018-08-10T06:48:13.236Z,1.43
2018-08-10T06:50:42.357Z,1.20
2018-08-10T06:53:10.900Z,1.40
2018-08-10T06:55:40.151Z,1.40
2018-08-10T06:58:08.642Z,1.50
2018-08-10T07:00:37.366Z,1.50
2018-08-10T07:20:28.126Z,1.40
2018-08-10T07:22:56.641Z,1.30
2018-08-10T07:25:25.180Z,1.10
2018-08-10T07:27:53.644Z,1.20
2018-08-10T07:47:44.042Z,1.40
2018-08-10T07:50:12.758Z,1.40
2018-08-10T08:10:02.615Z,0.90
2018-08-10T08:29:52.028Z,1.20
2018-08-10T08:32:20.597Z,1.10
2018-08-10T08:34:49.144Z,1.30
2018-08-10T08:37:18.391Z,1.43
2018-08-10T08:39:58.010Z,1.47
2018-08-10T08:42:26.761Z,1.17
2018-08-10T08:46:06.207Z,1.23
2018-08-10T08:48:37.061Z,1.00
2018-08-10T09:08:27.626Z,1.30
2018-08-10T09:10:57.472Z,1.40
2018-08-10T09:13:29.332Z,1.20
2018-08-10T09:15:59.220Z,1.30
2018-08-10T09:18:27.756Z,1.23
2018-08-10T09:20:56.245Z,1.33
2018-08-10T09:23:24.845Z,1.20
2018-08-10T09:43:14.770Z,1.20
2018-08-10T09:45:43.289Z,1.27
2018-08-10T09:48:11.836Z,1.20
2018-08-10T10:08:00.217Z,1.20
2018-08-10T10:10:29.237Z,1.23
2018-08-10T10:12:58.226Z,1.50
2018-08-10T10:15:27.462Z,1.67
2018-08-10T10:17:56.031Z,1.20
2018-08-10T10:20:24.770Z,1.40
2018-08-10T10:22:53.296Z,1.30
2018-08-10T10:25:21.882Z,1.40
2018-08-10T10:27:50.332Z,1.10
2018-08-10T10:30:19.784Z,1.03
2018-08-10T10:32:48.457Z,0.93
2018-08-10T10:35:17.538Z,0.97
2018-08-10T10:37:46.804Z,0.80
2018-08-10T10:40:15.362Z,1.10
2018-08-10T10:42:43.937Z,1.20
2018-08-10T10:45:14.523Z,1.00
2018-08-10T10:47:44.302Z,1.10
2018-08-10T10:50:13.863Z,1.10
2018-08-10T10:52:44.060Z,0.80
2018-08-10T10:55:12.826Z,0.90
2018-08-10T10:57:42.001Z,0.83
2018-08-10T11:00:13.506Z,0.90
2018-08-10T11:02:41.949Z,1.07
2018-08-10T11:05:10.503Z,1.03
2018-08-10T11:07:39.055Z,1.10
2018-08-10T11:10:09.595Z,1.10
2018-08-10T11:12:38.770Z,0.93
2018-08-10T11:15:08.615Z,1.00
2018-08-10T11:17:37.073Z,0.90
2018-08-10T11:20:06.669Z,1.03
2018-08-10T11:22:35.458Z,1.17
2018-08-10T11:25:04.521Z,1.00
2018-08-10T11:44:54.438Z,1.10
2018-08-10T11:47:22.912Z,0.90
2018-08-10T11:49:51.559Z,1.13
2018-08-10T11:52:20.669Z,0.83
2018-08-10T12:12:10.683Z,0.90
2018-08-10T12:14:39.917Z,0.93
2018-08-10T12:17:09.257Z,0.93
2018-08-10T12:19:38.278Z,0.90
2018-08-10T12:22:06.936Z,0.90
2018-08-10T12:41:57.265Z,0.93
2018-08-10T12:44:25.819Z,0.80
2018-08-10T12:46:54.330Z,1.03
2018-08-10T12:49:22.860Z,0.90
2018-08-10T13:09:13.944Z,1.00
2018-08-10T13:11:42.537Z,0.90
2018-08-10T13:14:11.066Z,1.10
2018-08-10T13:16:39.662Z,1.10
2018-08-10T13:19:08.465Z,1.23
2018-08-10T13:21:37.155Z,0.90
2018-08-10T13:24:05.741Z,1.20
2018-08-10T13:26:34.359Z,1.00
2018-08-10T13:46:24.243Z,1.37
2018-08-10T13:48:53.157Z,1.27
2018-08-10T13:51:21.596Z,1.47
2018-08-10T13:53:50.342Z,1.20
2018-08-10T13:56:19.309Z,1.00
2018-08-10T13:58:48.439Z,0.90
2018-08-10T14:01:17.656Z,1.00
2018-08-10T14:03:48.545Z,1.00
2018-08-10T14:06:17.942Z,1.00
2018-08-10T14:09:15.479Z,1.10
2018-08-10T14:11:44.926Z,1.10
2018-08-10T14:14:14.185Z,1.10
2018-08-10T14:16:43.379Z,1.20
2018-08-10T14:19:13.399Z,1.07
2018-08-10T14:39:06.629Z,1.10
2018-08-10T14:41:35.322Z,1.30
2018-08-10T14:44:04.545Z,1.20
2018-08-10T14:46:33.653Z,1.17
2018-08-10T15:06:23.653Z,1.40
2018-08-10T15:08:52.365Z,1.10
2018-08-10T15:11:20.843Z,1.37
2018-08-10T15:13:49.355Z,1.40
2018-08-10T15:16:17.881Z,0.90
2018-08-10T15:18:46.479Z,1.20
2018-08-10T15:21:15.223Z,1.10
2018-08-10T15:23:43.858Z,1.10
2018-08-10T15:26:12.305Z,1.23
2018-08-10T15:46:02.088Z,1.30
2018-08-10T16:05:52.040Z,1.17
2018-08-10T16:08:22.047Z,1.00
2018-08-10T16:10:50.616Z,1.20
2018-08-10T16:30:40.584Z,1.30
2018-08-10T16:33:09.134Z,1.33
2018-08-10T16:35:37.861Z,1.30
2018-08-10T16:38:06.422Z,1.30
2018-08-10T16:40:34.917Z,1.50
2018-08-10T16:43:03.418Z,1.80
2018-08-10T16:45:31.995Z,1.40
2018-08-10T16:48:00.449Z,1.70
2018-08-10T16:50:29.029Z,1.73
2018-08-10T16:52:58.090Z,1.47
2018-08-10T16:55:26.673Z,1.37
2018-08-10T16:57:55.351Z,1.30
2018-08-10T17:00:24.439Z,1.37
2018-08-10T17:02:52.897Z,1.20
2018-08-10T17:05:21.518Z,1.20
2018-08-10T17:07:50.222Z,1.10
2018-08-10T17:10:18.894Z,1.30
2018-08-10T17:12:48.567Z,1.27
2018-08-10T17:15:19.160Z,1.10
2018-08-10T17:17:48.427Z,1.60
2018-08-10T17:20:17.543Z,1.43
2018-08-10T17:22:46.843Z,1.23
2018-08-10T17:25:18.905Z,1.20
2018-08-10T17:27:47.687Z,1.27
2018-08-10T17:30:18.118Z,1.50
2018-08-10T17:32:48.068Z,1.37
2018-08-10T17:35:17.585Z,1.10
2018-08-10T17:37:47.022Z,1.70
2018-08-10T17:40:16.401Z,1.77
2018-08-10T17:42:44.920Z,1.60
2018-08-10T17:45:15.098Z,1.60
2018-08-10T17:47:43.616Z,1.80
2018-08-10T17:50:14.378Z,1.60
2018-08-10T17:52:47.328Z,1.80
2018-08-10T17:55:16.816Z,2.10
2018-08-10T17:57:46.066Z,1.73
2018-08-10T18:00:20.072Z,1.70
2018-08-10T18:02:49.378Z,1.77
2018-08-10T18:05:18.662Z,1.50
2018-08-10T18:07:48.817Z,1.77
2018-08-10T18:10:18.569Z,1.70
2018-08-10T18:12:47.169Z,1.70
2018-08-10T18:15:17.262Z,1.80
2018-08-10T18:17:46.308Z,2.00
2018-08-10T18:20:17.147Z,1.90
2018-08-10T18:22:47.040Z,2.20
2018-08-10T18:42:37.241Z,2.30
2018-08-10T18:45:07.016Z,2.40
2018-08-10T18:47:36.470Z,2.10
2018-08-10T18:50:05.971Z,2.37
2018-08-10T18:52:35.162Z,1.93
2018-08-10T18:55:04.143Z,2.13
2018-08-10T18:57:33.065Z,2.30
2018-08-10T19:17:22.945Z,4.43
2018-08-10T19:19:51.424Z,3.80
2018-08-10T19:39:44.289Z,6.57
2018-08-10T19:59:34.177Z,5.60
2018-08-10T20:02:03.346Z,4.70
2018-08-10T20:04:31.986Z,4.60
2018-08-10T20:07:01.427Z,4.00
2018-08-10T20:09:30.793Z,4.33
2018-08-10T20:11:59.255Z,3.17
2018-08-10T20:14:28.572Z,3.83
2018-08-10T20:34:18.181Z,2.53
2018-08-10T20:36:46.962Z,2.30
2018-08-10T20:39:16.543Z,2.17
2018-08-10T20:41:45.017Z,2.40
2018-08-10T20:44:13.589Z,2.57
2018-08-10T20:46:42.024Z,2.70
2018-08-10T20:49:10.545Z,2.63
2018-08-10T20:51:39.693Z,2.60
2018-08-10T20:54:08.263Z,2.73
2018-08-10T20:56:36.761Z,2.77
2018-08-10T20:59:05.596Z,2.47
2018-08-10T21:01:34.110Z,2.47
2018-08-10T21:04:02.706Z,2.30
2018-08-10T21:06:31.266Z,2.70
2018-08-10T21:08:59.757Z,2.80
2018-08-10T21:11:28.324Z,2.83
2018-08-10T21:13:56.910Z,2.70
2018-08-10T21:16:26.196Z,2.97
2018-08-10T21:18:55.826Z,2.83
2018-08-10T21:21:24.328Z,3.50
2018-08-10T21:23:52.849Z,3.03
2018-08-10T21:26:21.771Z,3.40
2018-08-10T21:28:50.553Z,3.07
2018-08-10T21:31:19.078Z,3.13
2018-08-10T21:33:48.417Z,2.97
2018-08-10T21:36:16.978Z,3.03
2018-08-10T21:38:46.782Z,3.20
2018-08-10T21:41:15.342Z,3.47
2018-08-10T21:43:43.845Z,3.17
2018-08-10T22:03:33.789Z,2.70
2018-08-10T22:06:02.257Z,2.90
2018-08-10T22:08:30.701Z,2.90
2018-08-10T22:11:00.737Z,3.10
2018-08-10T22:13:34.480Z,3.20
2018-08-10T22:16:09.283Z,2.90
2018-08-10T22:18:43.257Z,3.10
2018-08-10T22:21:11.843Z,3.37
2018-08-10T22:23:41.205Z,3.33
2018-08-10T22:43:30.680Z,3.20
2018-08-10T22:45:59.882Z,3.50
2018-08-10T22:48:28.867Z,3.30
2018-08-10T22:50:58.041Z,3.10
2018-08-10T22:53:26.560Z,2.90
2018-08-10T22:55:55.086Z,3.10
2018-08-10T22:58:23.708Z,2.87
2018-08-10T23:00:52.249Z,3.03
2018-08-10T23:03:22.109Z,2.70
2018-08-10T23:05:50.677Z,2.97
2018-08-10T23:08:19.913Z,3.03
2018-08-10T23:10:48.656Z,2.97
2018-08-10T23:13:18.218Z,3.00
2018-08-10T23:15:47.820Z,3.10
2018-08-10T23:18:16.403Z,3.10
2018-08-10T23:20:45.061Z,3.27
2018-08-10T23:23:14.216Z,2.97
2018-08-10T23:25:43.513Z,3.00
2018-08-10T23:28:12.946Z,3.40
2018-08-10T23:30:41.412Z,3.00
2018-08-10T23:33:09.941Z,3.10
2018-08-10T23:35:39.641Z,2.97
2018-08-10T23:38:09.068Z,2.87
2018-08-10T23:40:38.230Z,3.10
2018-08-10T23:43:07.458Z,3.20
2018-08-10T23:45:36.011Z,3.30
2018-08-10T23:48:04.562Z,3.10
2018-08-10T23:50:33.185Z,2.90
2018-08-10T23:53:01.813Z,2.87
2018-08-10T23:55:30.529Z,2.90
2018-08-10T23:57:59.363Z,2.63
